Time;durP1;ratioP1;P1;durP2;ratioP2;P2;SDS_P1;SDS_P2;PMS_P1;PMS_P2;Temp;Humidity;BMP_temperature;BMP_pressure;BME280_temperature;BME280_humidity;BME280_pressure;Samples;Min_cycle;Max_cycle;Signal;HPM_P1;HPM_P2
2021/07/17 00:00:11;;;;;;;2.23;1.30;;;19.50;99.90;;;21.45;58.67;97321.66;164679;30;1289;-73
2021/07/17 00:00:19;;;;;;;2.49;1.35;;;19.50;99.90;;;21.50;58.58;97329.91;165361;29;1464;-73
2021/07/17 00:00:26;;;;;;;2.35;1.40;;;19.50;99.90;;;21.49;58.38;97316.50;164885;30;1020;-73
2021/07/17 00:00:32;;;;;;;1.95;1.25;;;19.50;99.90;;;21.52;58.16;97327.75;164182;30;1916;-73
2021/07/17 00:00:38;;;;;;;1.60;1.20;;;19.50;99.90;;;21.42;58.17;97315.88;164857;30;869;-73
2021/07/17 00:00:45;;;;;;;1.88;1.20;;;19.50;99.90;;;21.51;58.06;97325.28;164139;30;789;-73
2021/07/17 00:00:51;;;;;;;2.10;1.27;;;19.50;99.90;;;21.47;58.34;97321.41;164168;30;1411;-73
2021/07/17 00:00:57;;;;;;;2.23;1.30;;;19.50;99.90;;;21.50;58.33;97323.66;164243;30;1004;-73
2021/07/17 00:01:08;;;;;;;2.65;1.30;;;19.50;99.90;;;21.47;58.40;97315.94;164154;30;917;-73
2021/07/17 00:01:17;;;;;;;2.64;1.32;;;19.50;99.90;;;21.43;58.27;97318.38;165382;29;1236;-74
2021/07/17 00:01:23;;;;;;;2.50;1.31;;;19.50;99.90;;;21.43;58.42;97317.53;164802;30;1214;-73
2021/07/17 00:01:29;;;;;;;2.10;1.30;;;19.50;99.90;;;21.52;58.58;97332.41;165409;29;1364;-74
2021/07/17 00:01:37;;;;;;;2.03;1.27;;;19.50;99.90;;;21.40;58.57;97307.13;165293;29;905;-73
2021/07/17 00:01:43;;;;;;;2.83;1.30;;;19.50;99.90;;;21.52;58.58;97326.94;166058;29;1331;-74
2021/07/17 00:01:49;;;;;;;3.53;1.30;;;19.50;99.90;;;21.51;58.44;97330.75;166001;29;874;-74
2021/07/17 00:01:59;;;;;;;3.50;1.23;;;19.50;99.90;;;21.49;58.38;97322.81;166019;29;885;-74
2021/07/17 00:02:05;;;;;;;4.38;1.28;;;19.50;99.90;;;21.55;58.22;97327.22;164795;29;1500;-73
2021/07/17 00:02:12;;;;;;;4.10;1.35;;;19.50;99.90;;;21.56;58.19;97331.63;164267;30;1172;-74
2021/07/17 00:02:18;;;;;;;3.07;1.30;;;19.50;99.90;;;21.55;58.16;97321.75;164280;30;921;-73
2021/07/17 00:02:26;;;;;;;2.83;1.20;;;19.40;99.90;;;21.50;58.16;97309.94;164748;29;1367;-73
2021/07/17 00:02:31;;;;;;;2.12;1.20;;;19.50;99.90;;;21.54;58.19;97319.28;165413;29;996;-73
2021/07/17 00:02:38;;;;;;;1.65;1.10;;;19.50;99.90;;;21.58;58.24;97323.97;165474;29;890;-73
2021/07/17 00:02:44;;;;;;;1.67;1.10;;;19.40;99.90;;;21.44;58.37;97298.13;164212;30;949;-74
2021/07/17 00:02:51;;;;;;;2.00;1.14;;;19.50;99.90;;;21.61;57.96;97328.94;164809;30;877;-73
2021/07/17 00:02:57;;;;;;;2.38;1.30;;;19.50;99.90;;;21.63;58.20;97328.69;164835;30;1093;-73
2021/07/17 00:03:04;;;;;;;2.08;1.30;;;19.50;99.90;;;21.62;57.89;97332.50;164832;30;1114;-73
2021/07/17 00:03:11;;;;;;;2.42;1.35;;;19.50;99.90;;;21.62;57.87;97327.03;164719;29;1383;-73
2021/07/17 00:03:16;;;;;;;2.27;1.37;;;19.50;99.90;;;21.55;57.48;97323.69;164244;30;1123;-73
2021/07/17 00:03:22;;;;;;;2.20;1.38;;;19.50;99.90;;;21.62;57.90;97325.09;164785;30;980;-73
2021/07/17 00:03:28;;;;;;;2.08;1.30;;;19.50;99.90;;;21.61;57.64;97322.63;164874;30;1302;-73
2021/07/17 00:03:37;;;;;;;2.28;1.33;;;19.50;99.90;;;21.58;57.88;97320.41;164790;29;1205;-73
2021/07/17 00:03:43;;;;;;;1.97;1.40;;;19.50;99.90;;;21.57;57.67;97316.03;164810;30;1016;-74
2021/07/17 00:03:49;;;;;;;1.97;1.37;;;19.50;99.90;;;21.63;57.71;97317.72;164243;30;940;-74
2021/07/17 00:03:55;;;;;;;1.97;1.30;;;19.50;99.90;;;21.57;57.62;97307.81;164145;30;1298;-73
2021/07/17 00:04:02;;;;;;;2.22;1.30;;;19.50;99.90;;;21.60;57.74;97310.88;164722;30;1320;-73
2021/07/17 00:04:09;;;;;;;2.20;1.30;;;19.50;99.90;;;21.60;57.75;97310.03;166077;29;1131;-73
2021/07/17 00:04:15;;;;;;;2.20;1.30;;;19.40;99.90;;;21.57;57.49;97305.06;164836;30;1073;-74
2021/07/17 00:04:21;;;;;;;2.58;1.30;;;19.50;99.90;;;21.67;57.65;97326.22;164184;30;965;-73
2021/07/17 00:04:28;;;;;;;2.85;1.30;;;19.50;99.90;;;21.62;57.76;97321.53;164816;30;913;-73
2021/07/17 00:04:34;;;;;;;2.43;1.20;;;19.50;99.90;;;21.60;57.59;97319.09;164839;30;1023;-73
2021/07/17 00:04:40;;;;;;;2.63;1.20;;;19.40;99.90;;;21.61;57.79;97319.88;165348;29;1299;-73
2021/07/17 00:04:46;;;;;;;2.72;1.20;;;19.40;99.90;;;21.63;57.67;97321.28;164090;30;1578;-73
2021/07/17 00:04:52;;;;;;;2.33;1.20;;;19.40;99.90;;;21.57;57.64;97308.63;164167;30;1624;-73
2021/07/17 00:04:58;;;;;;;2.15;1.25;;;19.40;99.90;;;21.63;57.53;97323.19;164791;30;1515;-73
2021/07/17 00:05:16;;;;;;;2.22;1.30;;;19.40;99.90;;;21.68;57.77;97323.25;164799;30;890;-74
2021/07/17 00:05:24;;;;;;;1.83;1.24;;;19.40;99.90;;;21.59;57.58;97305.63;164082;30;1428;-74
2021/07/17 00:05:30;;;;;;;2.27;1.10;;;19.40;99.90;;;21.70;57.58;97329.28;163495;30;1460;-73
2021/07/17 00:05:36;;;;;;;2.42;1.10;;;19.40;99.90;;;21.66;57.52;97316.38;163046;30;934;-73
2021/07/17 00:05:42;;;;;;;3.00;1.10;;;19.40;99.90;;;21.72;57.50;97324.38;163011;30;1106;-73
2021/07/17 00:05:48;;;;;;;3.10;1.15;;;19.40;99.90;;;21.72;57.34;97326.28;162790;30;1576;-74
2021/07/17 00:05:54;;;;;;;4.50;1.20;;;19.40;99.90;;;21.64;57.16;97319.38;163020;30;973;-73
2021/07/17 00:06:00;;;;;;;3.83;1.25;;;19.40;99.90;;;21.65;57.48;97321.03;162911;30;1298;-73
2021/07/17 00:06:06;;;;;;;4.57;1.25;;;19.40;99.90;;;21.70;57.68;97325.72;163604;30;1257;-73
2021/07/17 00:06:12;;;;;;;4.18;1.25;;;19.40;99.90;;;21.68;57.91;97320.50;163461;30;1455;-73
2021/07/17 00:06:18;;;;;;;4.10;1.20;;;19.40;99.90;;;21.70;57.70;97325.72;164826;30;933;-73
2021/07/17 00:06:25;;;;;;;2.70;1.20;;;19.40;99.90;;;21.70;57.65;97323.81;164854;30;937;-73
2021/07/17 00:06:33;;;;;;;2.70;1.23;;;19.40;99.90;;;21.71;57.72;97325.44;164910;30;897;-74
2021/07/17 00:06:39;;;;;;;2.17;1.30;;;19.40;99.90;;;21.68;57.90;97319.66;164641;30;1640;-73
2021/07/17 00:06:45;;;;;;;2.03;1.27;;;19.40;99.90;;;21.66;57.98;97321.88;164874;30;881;-73
2021/07/17 00:06:51;;;;;;;1.92;1.30;;;19.40;99.90;;;21.56;57.78;97303.41;164753;29;1520;-74
2021/07/17 00:06:57;;;;;;;1.95;1.30;;;19.40;99.90;;;21.68;58.10;97325.97;164855;30;865;-74
2021/07/17 00:07:03;;;;;;;1.67;1.20;;;19.40;99.90;;;21.63;58.18;97315.81;164822;30;972;-73
2021/07/17 00:07:10;;;;;;;2.53;1.20;;;19.40;99.90;;;21.62;58.16;97313.31;164833;30;901;-73
2021/07/17 00:07:17;;;;;;;2.60;1.22;;;19.40;99.90;;;21.64;57.98;97324.84;164725;30;1312;-73
2021/07/17 00:07:23;;;;;;;2.50;1.20;;;19.40;99.90;;;21.57;58.21;97307.81;164693;29;1394;-73
2021/07/17 00:07:29;;;;;;;2.67;1.20;;;19.40;99.90;;;21.64;58.12;97319.38;165449;29;1132;-74
2021/07/17 00:07:36;;;;;;;2.83;1.30;;;19.40;99.90;;;21.69;58.08;97319.41;164841;30;885;-73
2021/07/17 00:07:44;;;;;;;1.80;1.20;;;19.40;99.90;;;21.66;58.28;97321.88;165438;29;1114;-73
2021/07/17 00:07:50;;;;;;;2.50;1.30;;;19.50;99.90;;;21.65;57.91;97326.50;164651;30;1381;-73
2021/07/17 00:07:57;;;;;;;2.50;1.30;;;19.50;99.90;;;21.51;57.91;97300.63;163489;30;1458;-73
2021/07/17 00:08:05;;;;;;;2.50;1.30;;;19.40;99.90;;;21.63;57.97;97328.69;163633;30;952;-73
2021/07/17 00:08:11;;;;;;;2.46;1.28;;;19.50;99.90;;;21.60;58.02;97323.72;164018;30;1505;-73
2021/07/17 00:08:17;;;;;;;2.43;1.30;;;19.40;99.90;;;21.55;57.99;97310.78;165478;29;1031;-73
2021/07/17 00:08:23;;;;;;;1.93;1.23;;;19.50;99.90;;;21.55;58.19;97307.25;164745;29;1272;-73
2021/07/17 00:08:29;;;;;;;1.92;1.20;;;19.50;99.90;;;21.54;58.29;97309.16;164210;30;1048;-73
2021/07/17 00:08:35;;;;;;;1.58;1.10;;;19.50;99.90;;;21.56;58.06;97312.44;164803;30;905;-73
2021/07/17 00:08:41;;;;;;;1.52;1.10;;;19.50;99.90;;;21.59;58.10;97322.91;164146;30;1302;-74
2021/07/17 00:08:49;;;;;;;1.63;1.10;;;19.40;99.90;;;21.58;58.38;97315.75;164162;30;1635;-73
2021/07/17 00:08:56;;;;;;;2.44;1.10;;;19.40;99.90;;;21.56;58.32;97314.34;164188;30;1050;-73
2021/07/17 00:09:05;;;;;;;2.96;1.24;;;19.40;99.90;;;21.54;58.37;97311.06;164158;30;905;-74
2021/07/17 00:09:11;;;;;;;3.20;1.30;;;19.40;99.90;;;21.61;58.55;97319.88;165442;29;1219;-74
2021/07/17 00:09:17;;;;;;;3.10;1.30;;;19.40;99.90;;;21.62;58.22;97313.31;165436;29;1357;-73
2021/07/17 00:09:24;;;;;;;2.47;1.25;;;19.40;99.90;;;21.57;58.14;97305.06;164793;30;877;-74
2021/07/17 00:09:30;;;;;;;2.70;1.30;;;19.40;99.90;;;21.51;57.91;97301.44;165324;29;1391;-73
2021/07/17 00:09:37;;;;;;;2.40;1.23;;;19.40;99.90;;;21.55;57.99;97310.78;164794;30;1012;-74
2021/07/17 00:09:43;;;;;;;2.90;1.20;;;19.40;99.90;;;21.56;58.09;97312.44;164124;30;1024;-73
2021/07/17 00:09:49;;;;;;;3.47;1.33;;;19.40;99.90;;;21.58;57.99;97306.72;164722;30;870;-73
2021/07/17 00:09:55;;;;;;;3.73;1.30;;;19.40;99.90;;;21.51;58.30;97300.63;164225;30;882;-73
2021/07/17 00:10:01;;;;;;;3.15;1.25;;;19.40;99.90;;;21.60;57.93;97312.78;164273;30;957;-74
2021/07/17 00:10:20;;;;;;;3.35;1.42;;;19.40;99.90;;;21.69;57.88;97316.69;164113;30;1550;-74
2021/07/17 00:10:31;;;;;;;2.33;1.44;;;19.40;99.90;;;21.63;58.08;97309.50;163503;30;1232;-74
2021/07/17 00:10:48;;;;;;;2.41;1.41;;;19.40;99.90;;;21.53;58.94;97317.63;164227;30;1598;-73
2021/07/17 00:10:54;;;;;;;2.80;1.44;;;19.40;99.90;;;21.49;59.20;97314.59;163557;30;1240;-73
2021/07/17 00:11:01;;;;;;;2.70;1.37;;;19.40;99.90;;;21.48;59.24;97310.19;164833;30;945;-73
2021/07/17 00:11:07;;;;;;;2.30;1.30;;;19.40;99.90;;;21.48;59.26;97309.38;164084;30;1622;-74
2021/07/17 00:11:13;;;;;;;2.15;1.23;;;19.40;99.90;;;21.46;59.31;97312.38;162926;30;1104;-73
2021/07/17 00:11:20;;;;;;;4.18;1.27;;;19.40;99.90;;;21.42;59.53;97310.41;162953;30;961;-73
2021/07/17 00:11:27;;;;;;;3.97;1.13;;;19.40;99.90;;;21.43;59.31;97306.59;163611;30;1032;-73
2021/07/17 00:11:34;;;;;;;4.05;1.15;;;19.40;99.90;;;21.44;59.09;97302.78;164755;30;904;-73
2021/07/17 00:11:40;;;;;;;4.22;1.20;;;19.40;99.90;;;21.46;59.04;97300.59;165959;29;1331;-73
2021/07/17 00:11:47;;;;;;;3.97;1.10;;;19.40;99.90;;;21.48;58.83;97301.16;164777;30;1047;-73
2021/07/17 00:11:53;;;;;;;2.10;1.18;;;19.40;99.90;;;21.47;58.73;97300.34;164808;30;1005;-73
2021/07/17 00:11:59;;;;;;;2.50;1.30;;;19.40;99.90;;;21.43;58.55;97301.94;164213;30;1052;-74
2021/07/17 00:12:06;;;;;;;2.15;1.30;;;19.40;99.90;;;21.38;58.43;97296.41;165452;29;822;-74
2021/07/17 00:12:12;;;;;;;2.27;1.40;;;19.30;99.90;;;21.42;58.81;97315.88;165522;29;1094;-73
2021/07/17 00:12:18;;;;;;;2.53;1.40;;;19.40;99.90;;;21.35;59.07;97301.56;165410;29;904;-73
2021/07/17 00:12:24;;;;;;;2.38;1.42;;;19.40;99.90;;;21.42;59.02;97307.66;165479;29;948;-73
2021/07/17 00:12:30;;;;;;;2.00;1.33;;;19.40;99.90;;;21.47;58.96;97310.47;164769;30;877;-74
2021/07/17 00:12:36;;;;;;;2.00;1.30;;;19.40;99.90;;;21.44;58.83;97302.78;164138;30;1374;-73
2021/07/17 00:12:43;;;;;;;2.07;1.30;;;19.40;99.90;;;21.50;58.88;97313.50;164891;30;775;-74
2021/07/17 00:12:50;;;;;;;2.00;1.28;;;19.30;99.90;;;21.50;58.72;97312.69;165327;29;955;-73
2021/07/17 00:12:56;;;;;;;2.35;1.30;;;19.40;99.90;;;21.51;58.74;97306.09;164837;30;882;-74
2021/07/17 00:13:02;;;;;;;2.45;1.42;;;19.40;99.90;;;21.55;58.78;97318.22;163598;30;874;-74
2021/07/17 00:13:08;;;;;;;2.47;1.50;;;19.40;99.90;;;21.55;58.65;97305.31;164738;30;1308;-73
2021/07/17 00:13:18;;;;;;;2.96;1.56;;;19.40;99.90;;;21.58;58.42;97309.47;164848;30;1045;-74
2021/07/17 00:13:24;;;;;;;3.14;1.61;;;19.30;99.90;;;21.53;58.44;97301.19;164150;30;1450;-73
2021/07/17 00:13:31;;;;;;;2.97;1.67;;;19.40;99.90;;;21.55;58.44;97305.31;163642;30;909;-73
2021/07/17 00:13:36;;;;;;;2.96;1.60;;;19.40;99.90;;;21.50;58.36;97293.53;164156;29;1536;-73
2021/07/17 00:13:43;;;;;;;2.75;1.52;;;19.40;99.90;;;21.58;58.44;97310.28;164768;29;1417;-73
2021/07/17 00:13:49;;;;;;;2.75;1.40;;;19.40;99.90;;;21.56;58.88;97311.63;163418;30;1337;-73
2021/07/17 00:13:55;;;;;;;3.08;1.35;;;19.40;99.90;;;21.49;58.69;97300.09;164018;30;2129;-73
2021/07/17 00:14:01;;;;;;;3.03;1.30;;;19.40;99.90;;;21.47;58.99;97296.75;164653;29;1671;-73
2021/07/17 00:14:07;;;;;;;2.90;1.30;;;19.40;99.90;;;21.51;58.88;97304.19;164863;30;846;-73
2021/07/17 00:14:14;;;;;;;2.97;1.30;;;19.40;99.90;;;21.45;58.73;97296.22;165454;29;1148;-73
2021/07/17 00:14:20;;;;;;;2.27;1.23;;;19.40;99.90;;;21.49;58.63;97300.09;164854;30;858;-73
2021/07/17 00:14:27;;;;;;;2.40;1.27;;;19.40;99.90;;;21.49;58.35;97300.91;164830;30;1274;-73
2021/07/17 00:14:33;;;;;;;2.34;1.24;;;19.30;99.90;;;21.53;58.22;97303.94;163564;30;933;-74
2021/07/17 00:14:39;;;;;;;2.13;1.20;;;19.40;99.90;;;21.52;58.50;97305.84;164813;30;1425;-74
2021/07/17 00:14:45;;;;;;;1.70;1.13;;;19.40;99.90;;;21.43;58.76;97299.22;165428;29;932;-74
2021/07/17 00:14:51;;;;;;;1.67;1.20;;;19.40;99.90;;;21.38;59.01;97293.69;165372;29;957;-73
2021/07/17 00:14:57;;;;;;;1.48;1.13;;;19.30;99.90;;;21.38;59.07;97298.34;165414;29;980;-73
2021/07/17 00:15:04;;;;;;;1.45;1.20;;;19.40;99.90;;;21.36;59.27;97301.31;165393;29;989;-73
2021/07/17 00:15:15;;;;;;;1.83;1.37;;;19.40;99.90;;;21.35;59.35;97298.84;166046;29;873;-74
2021/07/17 00:15:24;;;;;;;1.91;1.31;;;19.30;99.90;;;21.36;59.42;97303.22;165358;29;1242;-74
2021/07/17 00:15:30;;;;;;;2.17;1.30;;;19.40;99.90;;;21.35;59.01;97299.66;164087;30;1586;-73
2021/07/17 00:15:37;;;;;;;3.20;1.30;;;19.40;99.90;;;21.40;58.99;97307.13;164887;30;814;-73
2021/07/17 00:15:43;;;;;;;3.30;1.20;;;19.40;99.90;;;21.35;59.17;97305.13;163599;30;925;-73
2021/07/17 00:15:52;;;;;;;3.40;1.23;;;19.30;99.90;;;21.34;59.06;97294.47;164806;30;1004;-73
2021/07/17 00:15:59;;;;;;;3.74;1.39;;;19.40;99.90;;;21.38;59.15;97287.38;164838;30;1090;-73
2021/07/17 00:16:05;;;;;;;3.03;1.40;;;19.40;99.90;;;21.44;58.88;97294.56;165445;29;932;-73
2021/07/17 00:16:11;;;;;;;2.92;1.45;;;19.30;99.90;;;21.41;58.39;97290.41;164858;30;1016;-74
2021/07/17 00:16:18;;;;;;;3.78;1.70;;;19.30;99.90;;;21.46;58.27;97290.47;166002;29;1311;-74
2021/07/17 00:16:27;;;;;;;3.87;1.67;;;19.30;99.90;;;21.48;58.54;97301.16;165446;29;968;-73
2021/07/17 00:16:34;;;;;;;3.71;1.50;;;19.40;99.90;;;21.43;58.22;97291.00;165349;29;1025;-73
2021/07/17 00:16:42;;;;;;;3.50;1.34;;;19.30;99.90;;;21.31;58.42;97276.63;165482;29;1283;-74
2021/07/17 00:16:48;;;;;;;2.92;1.13;;;19.40;99.90;;;21.41;58.47;97297.78;165400;29;1076;-74
2021/07/17 00:16:54;;;;;;;2.55;1.15;;;19.40;99.90;;;21.41;58.75;97284.94;164698;29;1423;-73
2021/07/17 00:17:00;;;;;;;2.67;1.13;;;19.40;99.90;;;21.41;59.07;97298.63;164828;30;1032;-73
2021/07/17 00:17:06;;;;;;;2.70;1.17;;;19.40;99.90;;;21.35;58.65;97282.41;164142;29;1224;-73
2021/07/17 00:17:12;;;;;;;2.38;1.33;;;19.40;99.90;;;21.39;59.13;97287.13;165443;29;866;-74
2021/07/17 00:17:18;;;;;;;3.95;1.50;;;19.40;99.90;;;21.35;59.17;97293.34;164742;30;1016;-74
2021/07/17 00:17:24;;;;;;;5.35;1.75;;;19.40;99.90;;;21.37;59.14;97293.94;164186;30;861;-74
2021/07/17 00:17:30;;;;;;;5.32;1.75;;;19.40;99.90;;;21.25;59.06;97276.84;165351;29;1384;-73
2021/07/17 00:17:36;;;;;;;6.35;1.92;;;19.30;99.90;;;21.29;58.97;97278.00;166033;29;1212;-74
2021/07/17 00:17:44;;;;;;;6.00;1.75;;;19.30;99.90;;;21.33;59.15;97279.13;165298;29;1353;-73
2021/07/17 00:17:51;;;;;;;3.76;1.49;;;19.40;99.90;;;21.36;58.89;97286.81;164838;30;1042;-73
2021/07/17 00:17:56;;;;;;;2.87;1.30;;;19.40;99.90;;;21.40;58.74;97296.16;165917;29;1425;-73
2021/07/17 00:18:03;;;;;;;2.40;1.27;;;19.40;99.90;;;21.37;58.88;97285.72;166063;29;885;-73
2021/07/17 00:18:09;;;;;;;1.62;1.26;;;19.30;99.90;;;21.43;58.76;97290.16;165441;29;1311;-74
2021/07/17 00:18:17;;;;;;;1.77;1.33;;;19.40;99.90;;;21.46;58.58;97290.47;165454;29;945;-73
2021/07/17 00:18:23;;;;;;;1.70;1.30;;;19.40;99.90;;;21.45;58.75;97296.22;165412;29;933;-74
2021/07/17 00:18:29;;;;;;;1.72;1.24;;;19.40;99.90;;;21.44;58.69;97294.56;164082;29;1358;-73
2021/07/17 00:18:35;;;;;;;2.43;1.20;;;19.30;99.90;;;21.48;58.66;97303.91;165275;29;1486;-74
2021/07/17 00:18:41;;;;;;;2.63;1.20;;;19.30;99.90;;;21.45;58.52;97282.53;165472;29;874;-74
2021/07/17 00:18:47;;;;;;;2.55;1.20;;;19.40;99.90;;;21.42;58.60;97286.59;165447;29;1076;-73
2021/07/17 00:18:57;;;;;;;2.80;1.27;;;19.30;99.90;;;21.49;58.44;97289.13;165995;29;1236;-73
2021/07/17 00:19:04;;;;;;;2.84;1.30;;;19.40;99.90;;;21.44;58.66;97287.16;164766;30;1476;-74
2021/07/17 00:19:11;;;;;;;2.77;1.33;;;19.30;99.90;;;21.51;58.32;97295.97;164187;30;980;-73
2021/07/17 00:19:18;;;;;;;3.30;1.37;;;19.40;99.90;;;21.44;58.51;97281.69;163593;30;1067;-73
2021/07/17 00:19:24;;;;;;;2.96;1.26;;;19.30;99.90;;;21.50;58.83;97290.78;163579;30;999;-74
2021/07/17 00:19:30;;;;;;;3.08;1.20;;;19.40;99.90;;;21.50;58.89;97299.00;163582;30;865;-74
2021/07/17 00:19:36;;;;;;;3.17;1.23;;;19.40;99.90;;;21.47;58.60;97286.63;163548;30;1452;-73
2021/07/17 00:19:42;;;;;;;1.85;1.15;;;19.40;99.90;;;21.44;58.63;97278.13;162913;30;1292;-73
2021/07/17 00:19:48;;;;;;;2.45;1.20;;;19.40;99.90;;;21.47;58.63;97285.81;163517;30;984;-74
2021/07/17 00:19:54;;;;;;;2.97;1.30;;;19.30;99.90;;;21.52;58.56;97291.31;163632;30;949;-74
2021/07/17 00:20:00;;;;;;;2.75;1.30;;;19.30;99.90;;;21.49;58.33;97294.59;163435;30;1448;-73
2021/07/17 00:20:12;;;;;;;2.65;1.23;;;19.30;99.90;;;21.52;58.38;97296.81;163605;30;858;-73
2021/07/17 00:20:18;;;;;;;2.56;1.26;;;19.30;99.90;;;21.55;58.49;97293.56;163610;30;1234;-74
2021/07/17 00:20:24;;;;;;;1.60;1.10;;;19.40;99.90;;;21.56;58.48;97290.53;164270;30;1072;-73
2021/07/17 00:20:31;;;;;;;1.75;1.20;;;19.40;99.90;;;21.59;58.73;97291.94;164869;30;834;-73
2021/07/17 00:20:37;;;;;;;1.90;1.30;;;19.30;99.90;;;21.58;58.67;97287.53;163478;30;1896;-73
2021/07/17 00:20:47;;;;;;;1.70;1.20;;;19.30;99.90;;;21.52;58.93;97285.84;164249;30;838;-73
2021/07/17 00:20:53;;;;;;;1.90;1.33;;;19.40;99.90;;;21.46;59.22;97289.63;164601;30;1770;-73
2021/07/17 00:20:59;;;;;;;1.80;1.30;;;19.40;99.90;;;21.50;59.28;97297.06;164790;30;925;-73
2021/07/17 00:21:05;;;;;;;1.80;1.30;;;19.40;99.90;;;21.39;59.13;97278.91;164788;30;1370;-73
2021/07/17 00:21:12;;;;;;;1.85;1.30;;;19.30;99.90;;;21.45;59.02;97288.78;164081;30;1207;-73
2021/07/17 00:21:18;;;;;;;2.08;1.40;;;19.40;99.90;;;21.44;58.98;97291.81;164197;30;1071;-74
2021/07/17 00:21:24;;;;;;;2.53;1.47;;;19.40;99.90;;;21.43;58.92;97285.50;163588;30;916;-73
2021/07/17 00:21:30;;;;;;;3.58;1.54;;;19.30;99.90;;;21.50;58.93;97299.00;164176;30;1130;-73
2021/07/17 00:21:36;;;;;;;3.90;1.60;;;19.30;99.90;;;21.51;58.52;97289.66;164680;30;889;-74
2021/07/17 00:21:42;;;;;;;4.18;1.63;;;19.30;99.90;;;21.50;58.90;97282.56;164198;30;1231;-73
2021/07/17 00:21:48;;;;;;;4.28;1.65;;;19.30;99.90;;;21.53;58.79;97290.25;164158;30;883;-73
2021/07/17 00:21:54;;;;;;;4.38;1.65;;;19.30;99.90;;;21.48;58.68;97288.28;164866;30;862;-74
2021/07/17 00:22:00;;;;;;;3.55;1.52;;;19.30;99.90;;;21.54;58.88;97297.38;164808;30;884;-74
2021/07/17 00:22:06;;;;;;;2.93;1.40;;;19.30;99.90;;;21.51;58.63;97290.50;164773;29;1304;-73
2021/07/17 00:22:11;;;;;;;2.63;1.30;;;19.30;99.90;;;21.45;58.39;97288.00;163433;30;1431;-73
2021/07/17 00:22:17;;;;;;;2.35;1.23;;;19.30;99.90;;;21.43;58.63;97290.16;163545;30;972;-73
2021/07/17 00:22:23;;;;;;;2.03;1.30;;;19.30;99.90;;;21.31;58.52;97282.13;163474;30;1305;-73
2021/07/17 00:22:29;;;;;;;2.03;1.30;;;19.30;99.90;;;21.32;58.85;97285.69;162897;30;1204;-74
2021/07/17 00:22:36;;;;;;;2.28;1.38;;;19.30;99.90;;;21.32;59.21;97286.50;163008;30;981;-74
2021/07/17 00:22:42;;;;;;;2.72;1.40;;;19.40;99.90;;;21.33;59.06;97284.59;163582;30;1028;-74
2021/07/17 00:22:48;;;;;;;2.67;1.42;;;19.30;99.90;;;21.36;59.15;97290.38;163473;30;1655;-73
2021/07/17 00:22:54;;;;;;;2.42;1.38;;;19.30;99.90;;;21.28;59.16;97276.34;162959;30;985;-73
2021/07/17 00:23:01;;;;;;;2.28;1.30;;;19.30;99.90;;;21.32;59.24;97288.41;162921;30;966;-74
2021/07/17 00:23:07;;;;;;;1.96;1.18;;;19.30;99.90;;;21.29;59.33;97288.94;163822;30;1907;-73
2021/07/17 00:23:14;;;;;;;1.50;1.10;;;19.30;99.90;;;21.26;59.25;97281.25;164755;29;1485;-73
2021/07/17 00:23:20;;;;;;;1.60;1.10;;;19.30;99.90;;;21.27;59.34;97288.38;164764;30;1008;-73
2021/07/17 00:23:26;;;;;;;1.77;1.10;;;19.30;99.90;;;21.16;59.27;97271.03;164244;30;942;-73
2021/07/17 00:23:33;;;;;;;1.88;1.17;;;19.30;99.90;;;21.30;59.54;97282.38;164226;30;894;-73
2021/07/17 00:23:39;;;;;;;2.22;1.20;;;19.30;99.90;;;21.27;59.37;97286.47;164209;30;872;-73
2021/07/17 00:23:45;;;;;;;2.20;1.20;;;19.30;99.90;;;21.31;59.41;97292.22;165259;29;1404;-73
2021/07/17 00:23:52;;;;;;;2.00;1.20;;;19.30;99.90;;;21.25;59.40;97283.16;165399;29;913;-73
2021/07/17 00:23:58;;;;;;;1.74;1.16;;;19.30;99.90;;;21.27;59.28;97282.91;165414;29;873;-73
2021/07/17 00:24:04;;;;;;;1.53;1.17;;;19.30;99.90;;;21.33;59.21;97282.69;165430;29;822;-74
2021/07/17 00:24:10;;;;;;;2.63;1.25;;;19.30;99.90;;;21.30;59.13;97277.72;164747;30;944;-73
2021/07/17 00:24:17;;;;;;;2.88;1.30;;;19.30;99.90;;;21.36;59.06;97289.53;165494;29;869;-73
2021/07/17 00:24:23;;;;;;;2.90;1.34;;;19.30;99.90;;;21.32;59.07;97282.94;164150;30;1123;-74
2021/07/17 00:24:29;;;;;;;3.63;1.40;;;19.30;99.90;;;21.33;59.04;97285.44;165394;29;901;-73
2021/07/17 00:24:35;;;;;;;4.78;1.50;;;19.30;99.90;;;21.24;58.97;97269.75;164776;29;1237;-73
2021/07/17 00:24:41;;;;;;;3.60;1.40;;;19.30;99.90;;;21.30;59.07;97279.63;164187;30;1250;-74
2021/07/17 00:24:47;;;;;;;3.42;1.38;;;19.30;99.90;;;21.31;59.17;97281.28;164191;30;1204;-73
2021/07/17 00:24:53;;;;;;;3.53;1.35;;;19.30;99.90;;;21.31;59.31;97278.53;164081;30;941;-74
2021/07/17 00:24:59;;;;;;;3.70;1.45;;;19.30;99.90;;;21.26;59.19;97271.13;164185;30;862;-73
2021/07/17 00:25:16;;;;;;;2.15;1.38;;;19.30;99.90;;;21.35;59.24;97279.66;164709;29;1215;-73
2021/07/17 00:25:23;;;;;;;2.19;1.31;;;19.30;99.90;;;21.43;58.89;97287.44;164060;30;1469;-73
2021/07/17 00:25:29;;;;;;;1.83;1.17;;;19.30;99.90;;;21.34;58.48;97280.78;164200;30;949;-74
2021/07/17 00:25:35;;;;;;;2.88;1.27;;;19.30;99.90;;;21.41;58.68;97286.84;164165;30;924;-73
2021/07/17 00:25:43;;;;;;;2.83;1.30;;;19.30;99.90;;;21.38;59.06;97279.16;164819;30;1308;-73
2021/07/17 00:25:53;;;;;;;2.83;1.38;;;19.30;99.90;;;21.27;58.70;97263.72;164123;30;1388;-74
2021/07/17 00:25:59;;;;;;;3.66;1.55;;;19.30;99.90;;;21.43;59.17;97285.50;164142;30;1279;-73
2021/07/17 00:26:05;;;;;;;3.33;1.60;;;19.30;99.90;;;21.38;59.32;97284.66;164055;30;1336;-73
2021/07/17 00:26:11;;;;;;;3.90;1.63;;;19.30;99.90;;;21.38;58.99;97281.91;164128;30;1639;-74
2021/07/17 00:26:17;;;;;;;4.03;1.65;;;19.30;99.90;;;21.42;58.80;97283.03;164821;30;881;-73
2021/07/17 00:26:23;;;;;;;3.63;1.58;;;19.30;99.90;;;21.42;58.58;97289.34;164802;30;965;-73
2021/07/17 00:26:28;;;;;;;3.00;1.47;;;19.30;99.90;;;21.45;58.57;97288.00;164782;30;810;-73
2021/07/17 00:26:34;;;;;;;2.60;1.40;;;19.30;99.90;;;21.47;58.61;97285.81;164153;30;1580;-73
2021/07/17 00:26:41;;;;;;;1.92;1.40;;;19.30;99.90;;;21.37;58.72;97275.59;164237;30;953;-74
2021/07/17 00:26:47;;;;;;;2.12;1.36;;;19.30;99.90;;;21.44;58.67;97280.88;164863;30;908;-73
2021/07/17 00:26:53;;;;;;;2.17;1.40;;;19.30;99.90;;;21.44;58.89;97286.34;164721;29;1249;-73
2021/07/17 00:26:59;;;;;;;2.50;1.42;;;19.30;99.90;;;21.48;58.87;97288.28;165982;29;1329;-73
2021/07/17 00:27:05;;;;;;;2.47;1.40;;;19.30;99.90;;;21.46;59.02;97286.88;165457;29;1057;-73
2021/07/17 00:27:11;;;;;;;2.30;1.33;;;19.30;99.90;;;21.46;59.31;97286.88;165950;29;1356;-73
2021/07/17 00:27:17;;;;;;;2.50;1.33;;;19.30;99.90;;;21.47;58.95;97285.81;164882;30;909;-73
2021/07/17 00:27:23;;;;;;;3.25;1.40;;;19.30;99.90;;;21.40;58.87;97274.25;163557;30;1210;-73
2021/07/17 00:27:29;;;;;;;3.28;1.40;;;19.30;99.90;;;21.41;58.93;97287.69;164739;30;1343;-74
2021/07/17 00:27:35;;;;;;;3.37;1.43;;;19.30;99.90;;;21.41;58.85;97281.38;164188;30;921;-73
2021/07/17 00:27:42;;;;;;;3.92;1.50;;;19.30;99.90;;;21.40;58.86;97279.75;164789;30;892;-73
2021/07/17 00:27:49;;;;;;;3.86;1.48;;;19.30;99.90;;;21.39;59.04;97275.34;164775;30;925;-73
2021/07/17 00:27:55;;;;;;;3.40;1.53;;;19.30;99.90;;;21.40;58.83;97279.75;165335;29;1417;-74
2021/07/17 00:28:01;;;;;;;3.55;1.55;;;19.30;99.90;;;21.36;58.95;97278.59;166526;29;1354;-73
2021/07/17 00:28:07;;;;;;;3.73;1.50;;;19.30;99.90;;;21.35;58.93;97277.75;165440;29;1106;-73
2021/07/17 00:28:15;;;;;;;3.05;1.58;;;19.30;99.90;;;21.34;58.98;97269.81;164910;30;889;-74
2021/07/17 00:28:21;;;;;;;3.10;1.57;;;19.30;99.90;;;21.26;59.25;97254.69;164236;30;847;-73
2021/07/17 00:28:28;;;;;;;2.83;1.50;;;19.30;99.90;;;21.45;59.11;97282.53;164235;30;917;-73
2021/07/17 00:28:34;;;;;;;2.60;1.65;;;19.30;99.90;;;21.29;58.94;97256.91;164861;30;917;-73
2021/07/17 00:28:40;;;;;;;2.58;1.73;;;19.30;99.90;;;21.35;59.02;97260.50;165214;29;1542;-74
2021/07/17 00:28:46;;;;;;;2.90;1.80;;;19.30;99.90;;;21.37;59.23;97272.03;165430;29;1460;-74
2021/07/17 00:28:52;;;;;;;2.97;1.73;;;19.30;99.90;;;21.38;59.41;97279.16;165448;29;1345;-73
2021/07/17 00:28:58;;;;;;;2.70;1.70;;;19.30;99.90;;;21.32;59.44;97272.00;164238;30;1032;-74